sensor_id;sensor_type;location;lat;lon;timestamp;P1;durP1;ratioP1;P2;durP2;ratioP2
38972;SDS011;25333;50.762;4.470;2022-10-31T00:02:22;9.25;;;7.10;;
38972;SDS011;25333;50.762;4.470;2022-10-31T00:04:47;10.07;;;7.05;;
38972;SDS011;25333;50.762;4.470;2022-10-31T00:07:13;8.43;;;6.93;;
38972;SDS011;25333;50.762;4.470;2022-10-31T00:09:38;9.90;;;8.10;;
38972;SDS011;25333;50.762;4.470;2022-10-31T00:12:04;10.40;;;8.73;;
38972;SDS011;25333;50.762;4.470;2022-10-31T00:14:30;9.77;;;7.00;;
38972;SDS011;25333;50.762;4.470;2022-10-31T00:16:55;11.07;;;7.33;;
38972;SDS011;25333;50.762;4.470;2022-10-31T00:19:21;10.32;;;7.95;;
38972;SDS011;25333;50.762;4.470;2022-10-31T00:21:47;9.68;;;7.07;;
38972;SDS011;25333;50.762;4.470;2022-10-31T00:24:12;8.80;;;7.23;;
38972;SDS011;25333;50.762;4.470;2022-10-31T00:26:38;11.60;;;8.73;;
38972;SDS011;25333;50.762;4.470;2022-10-31T00:29:03;12.82;;;8.65;;
38972;SDS011;25333;50.762;4.470;2022-10-31T00:31:29;8.53;;;6.97;;
38972;SDS011;25333;50.762;4.470;2022-10-31T00:33:55;10.77;;;7.22;;
38972;SDS011;25333;50.762;4.470;2022-10-31T00:36:21;9.18;;;7.13;;
38972;SDS011;25333;50.762;4.470;2022-10-31T00:38:47;8.70;;;7.27;;
38972;SDS011;25333;50.762;4.470;2022-10-31T00:41:15;9.23;;;7.53;;
38972;SDS011;25333;50.762;4.470;2022-10-31T00:43:42;10.10;;;7.95;;
38972;SDS011;25333;50.762;4.470;2022-10-31T00:46:09;9.57;;;7.00;;
38972;SDS011;25333;50.762;4.470;2022-10-31T00:48:35;11.38;;;7.35;;
38972;SDS011;25333;50.762;4.470;2022-10-31T00:51:01;10.27;;;7.30;;
38972;SDS011;25333;50.762;4.470;2022-10-31T00:53:26;10.20;;;7.03;;
38972;SDS011;25333;50.762;4.470;2022-10-31T00:55:52;12.43;;;7.55;;
38972;SDS011;25333;50.762;4.470;2022-10-31T00:58:18;9.53;;;6.70;;
38972;SDS011;25333;50.762;4.470;2022-10-31T01:00:43;10.13;;;6.83;;
38972;SDS011;25333;50.762;4.470;2022-10-31T01:03:09;8.70;;;7.30;;
38972;SDS011;25333;50.762;4.470;2022-10-31T01:05:34;8.07;;;6.37;;
38972;SDS011;25333;50.762;4.470;2022-10-31T01:08:00;9.90;;;6.93;;
38972;SDS011;25333;50.762;4.470;2022-10-31T01:10:26;8.68;;;6.28;;
38972;SDS011;25333;50.762;4.470;2022-10-31T01:12:51;8.82;;;6.00;;
38972;SDS011;25333;50.762;4.470;2022-10-31T01:15:18;10.13;;;5.90;;
38972;SDS011;25333;50.762;4.470;2022-10-31T01:17:46;7.82;;;6.60;;
38972;SDS011;25333;50.762;4.470;2022-10-31T01:20:13;7.57;;;6.78;;
38972;SDS011;25333;50.762;4.470;2022-10-31T01:22:40;7.55;;;5.70;;
38972;SDS011;25333;50.762;4.470;2022-10-31T01:25:06;8.48;;;5.93;;
38972;SDS011;25333;50.762;4.470;2022-10-31T01:27:33;8.40;;;6.35;;
38972;SDS011;25333;50.762;4.470;2022-10-31T01:29:59;7.35;;;6.53;;
38972;SDS011;25333;50.762;4.470;2022-10-31T01:32:25;10.73;;;6.70;;
38972;SDS011;25333;50.762;4.470;2022-10-31T01:34:53;8.90;;;5.90;;
38972;SDS011;25333;50.762;4.470;2022-10-31T01:37:19;6.10;;;5.28;;
38972;SDS011;25333;50.762;4.470;2022-10-31T01:39:45;8.40;;;6.60;;
38972;SDS011;25333;50.762;4.470;2022-10-31T01:42:15;6.22;;;4.90;;
38972;SDS011;25333;50.762;4.470;2022-10-31T01:44:48;10.18;;;6.75;;
38972;SDS011;25333;50.762;4.470;2022-10-31T01:47:19;10.95;;;7.72;;
38972;SDS011;25333;50.762;4.470;2022-10-31T01:49:53;7.65;;;6.18;;
38972;SDS011;25333;50.762;4.470;2022-10-31T01:54:55;9.40;;;6.80;;
38972;SDS011;25333;50.762;4.470;2022-10-31T01:57:28;8.88;;;6.13;;
38972;SDS011;25333;50.762;4.470;2022-10-31T01:59:57;8.13;;;6.10;;
38972;SDS011;25333;50.762;4.470;2022-10-31T02:02:25;8.05;;;6.45;;
38972;SDS011;25333;50.762;4.470;2022-10-31T02:04:55;7.57;;;5.65;;
38972;SDS011;25333;50.762;4.470;2022-10-31T02:07:26;8.85;;;5.82;;
38972;SDS011;25333;50.762;4.470;2022-10-31T02:09:58;10.68;;;6.93;;
38972;SDS011;25333;50.762;4.470;2022-10-31T02:12:25;6.53;;;5.63;;
38972;SDS011;25333;50.762;4.470;2022-10-31T02:14:50;8.45;;;5.20;;
38972;SDS011;25333;50.762;4.470;2022-10-31T02:17:16;7.88;;;6.07;;
38972;SDS011;25333;50.762;4.470;2022-10-31T02:22:43;8.77;;;6.23;;
38972;SDS011;25333;50.762;4.470;2022-10-31T02:45:39;7.88;;;6.05;;
38972;SDS011;25333;50.762;4.470;2022-10-31T02:48:12;12.02;;;6.05;;
38972;SDS011;25333;50.762;4.470;2022-10-31T02:50:43;9.63;;;7.00;;
38972;SDS011;25333;50.762;4.470;2022-10-31T02:53:16;9.20;;;7.05;;
38972;SDS011;25333;50.762;4.470;2022-10-31T02:55:44;6.90;;;5.80;;
38972;SDS011;25333;50.762;4.470;2022-10-31T02:58:15;8.20;;;6.03;;
38972;SDS011;25333;50.762;4.470;2022-10-31T03:04:02;11.10;;;6.80;;
38972;SDS011;25333;50.762;4.470;2022-10-31T03:09:35;7.85;;;6.45;;
38972;SDS011;25333;50.762;4.470;2022-10-31T03:12:22;7.75;;;5.97;;
38972;SDS011;25333;50.762;4.470;2022-10-31T03:15:05;7.28;;;6.18;;
38972;SDS011;25333;50.762;4.470;2022-10-31T03:17:47;7.82;;;6.35;;
38972;SDS011;25333;50.762;4.470;2022-10-31T03:20:25;9.32;;;6.32;;
38972;SDS011;25333;50.762;4.470;2022-10-31T03:22:54;11.82;;;7.35;;
38972;SDS011;25333;50.762;4.470;2022-10-31T03:25:23;7.80;;;6.97;;
38972;SDS011;25333;50.762;4.470;2022-10-31T03:27:49;9.98;;;7.30;;
38972;SDS011;25333;50.762;4.470;2022-10-31T03:30:16;8.27;;;7.03;;
38972;SDS011;25333;50.762;4.470;2022-10-31T03:32:50;7.90;;;6.13;;
38972;SDS011;25333;50.762;4.470;2022-10-31T03:35:19;8.95;;;6.45;;
38972;SDS011;25333;50.762;4.470;2022-10-31T03:37:47;8.25;;;5.72;;
38972;SDS011;25333;50.762;4.470;2022-10-31T03:40:16;8.40;;;6.63;;
38972;SDS011;25333;50.762;4.470;2022-10-31T03:42:47;10.18;;;7.70;;
38972;SDS011;25333;50.762;4.470;2022-10-31T03:45:24;9.85;;;7.40;;
38972;SDS011;25333;50.762;4.470;2022-10-31T03:47:52;9.43;;;7.15;;
38972;SDS011;25333;50.762;4.470;2022-10-31T03:50:19;8.40;;;6.32;;
38972;SDS011;25333;50.762;4.470;2022-10-31T03:52:48;8.57;;;5.90;;
38972;SDS011;25333;50.762;4.470;2022-10-31T03:58:13;8.55;;;7.10;;
38972;SDS011;25333;50.762;4.470;2022-10-31T04:00:46;7.15;;;6.13;;
38972;SDS011;25333;50.762;4.470;2022-10-31T04:03:17;10.10;;;6.60;;
38972;SDS011;25333;50.762;4.470;2022-10-31T04:06:05;8.20;;;6.32;;
38972;SDS011;25333;50.762;4.470;2022-10-31T04:08:35;7.80;;;6.55;;
38972;SDS011;25333;50.762;4.470;2022-10-31T04:11:07;7.38;;;5.90;;
38972;SDS011;25333;50.762;4.470;2022-10-31T04:13:34;9.15;;;6.93;;
38972;SDS011;25333;50.762;4.470;2022-10-31T04:16:04;8.32;;;6.40;;
38972;SDS011;25333;50.762;4.470;2022-10-31T04:18:30;8.63;;;6.55;;
38972;SDS011;25333;50.762;4.470;2022-10-31T04:21:01;6.60;;;5.50;;
38972;SDS011;25333;50.762;4.470;2022-10-31T04:23:28;9.10;;;7.20;;
38972;SDS011;25333;50.762;4.470;2022-10-31T04:25:54;10.02;;;6.38;;
38972;SDS011;25333;50.762;4.470;2022-10-31T04:28:20;10.80;;;6.43;;
38972;SDS011;25333;50.762;4.470;2022-10-31T04:30:46;10.23;;;7.07;;
38972;SDS011;25333;50.762;4.470;2022-10-31T04:33:11;9.05;;;6.63;;
38972;SDS011;25333;50.762;4.470;2022-10-31T04:35:37;10.25;;;7.10;;
38972;SDS011;25333;50.762;4.470;2022-10-31T04:38:02;13.67;;;9.23;;
38972;SDS011;25333;50.762;4.470;2022-10-31T04:40:28;11.40;;;8.50;;
38972;SDS011;25333;50.762;4.470;2022-10-31T04:42:54;12.77;;;8.63;;
38972;SDS011;25333;50.762;4.470;2022-10-31T04:45:19;10.47;;;7.83;;
38972;SDS011;25333;50.762;4.470;2022-10-31T04:47:45;9.45;;;7.07;;
38972;SDS011;25333;50.762;4.470;2022-10-31T04:50:11;11.50;;;7.63;;
38972;SDS011;25333;50.762;4.470;2022-10-31T04:52:42;14.98;;;8.27;;
38972;SDS011;25333;50.762;4.470;2022-10-31T04:55:09;10.27;;;7.78;;
38972;SDS011;25333;50.762;4.470;2022-10-31T04:57:42;8.68;;;7.45;;
38972;SDS011;25333;50.762;4.470;2022-10-31T05:00:09;9.98;;;7.07;;
38972;SDS011;25333;50.762;4.470;2022-10-31T05:02:45;11.93;;;7.80;;
38972;SDS011;25333;50.762;4.470;2022-10-31T05:05:13;16.15;;;9.77;;
38972;SDS011;25333;50.762;4.470;2022-10-31T05:07:40;11.30;;;7.88;;
38972;SDS011;25333;50.762;4.470;2022-10-31T05:10:11;10.93;;;8.23;;
38972;SDS011;25333;50.762;4.470;2022-10-31T05:12:45;12.50;;;8.32;;
38972;SDS011;25333;50.762;4.470;2022-10-31T05:15:14;12.25;;;8.40;;
38972;SDS011;25333;50.762;4.470;2022-10-31T05:17:41;11.38;;;8.80;;
38972;SDS011;25333;50.762;4.470;2022-10-31T05:20:07;10.55;;;8.15;;
38972;SDS011;25333;50.762;4.470;2022-10-31T05:22:34;11.77;;;8.57;;
38972;SDS011;25333;50.762;4.470;2022-10-31T05:24:59;12.93;;;9.13;;
38972;SDS011;25333;50.762;4.470;2022-10-31T05:27:25;12.47;;;7.87;;
38972;SDS011;25333;50.762;4.470;2022-10-31T05:29:51;10.48;;;9.18;;
38972;SDS011;25333;50.762;4.470;2022-10-31T05:32:16;11.10;;;8.47;;
38972;SDS011;25333;50.762;4.470;2022-10-31T05:34:42;8.37;;;7.33;;
38972;SDS011;25333;50.762;4.470;2022-10-31T05:37:07;10.95;;;8.25;;
38972;SDS011;25333;50.762;4.470;2022-10-31T05:39:33;10.83;;;7.80;;
38972;SDS011;25333;50.762;4.470;2022-10-31T05:41:59;12.32;;;7.50;;
38972;SDS011;25333;50.762;4.470;2022-10-31T05:44:24;13.00;;;9.27;;
38972;SDS011;25333;50.762;4.470;2022-10-31T05:46:50;13.50;;;8.45;;
38972;SDS011;25333;50.762;4.470;2022-10-31T05:49:16;10.52;;;8.18;;
38972;SDS011;25333;50.762;4.470;2022-10-31T05:51:42;9.60;;;7.82;;
38972;SDS011;25333;50.762;4.470;2022-10-31T05:54:08;10.68;;;7.88;;
38972;SDS011;25333;50.762;4.470;2022-10-31T05:56:33;10.98;;;8.00;;
38972;SDS011;25333;50.762;4.470;2022-10-31T05:58:59;8.57;;;7.57;;
38972;SDS011;25333;50.762;4.470;2022-10-31T06:01:25;10.63;;;8.05;;
38972;SDS011;25333;50.762;4.470;2022-10-31T06:03:50;9.50;;;7.87;;
38972;SDS011;25333;50.762;4.470;2022-10-31T06:06:16;10.10;;;7.93;;
38972;SDS011;25333;50.762;4.470;2022-10-31T06:08:42;9.17;;;7.23;;
38972;SDS011;25333;50.762;4.470;2022-10-31T06:11:11;10.57;;;7.55;;
38972;SDS011;25333;50.762;4.470;2022-10-31T06:13:36;11.93;;;8.63;;
38972;SDS011;25333;50.762;4.470;2022-10-31T06:16:02;11.77;;;7.83;;
38972;SDS011;25333;50.762;4.470;2022-10-31T06:18:28;9.25;;;7.72;;
38972;SDS011;25333;50.762;4.470;2022-10-31T06:20:53;13.10;;;8.63;;
38972;SDS011;25333;50.762;4.470;2022-10-31T06:23:19;11.30;;;8.18;;
38972;SDS011;25333;50.762;4.470;2022-10-31T06:25:48;9.17;;;8.03;;
38972;SDS011;25333;50.762;4.470;2022-10-31T06:28:14;9.98;;;7.97;;
38972;SDS011;25333;50.762;4.470;2022-10-31T06:30:40;9.27;;;7.87;;
38972;SDS011;25333;50.762;4.470;2022-10-31T06:33:05;11.37;;;7.77;;
38972;SDS011;25333;50.762;4.470;2022-10-31T06:35:31;12.18;;;8.25;;
38972;SDS011;25333;50.762;4.470;2022-10-31T06:37:57;10.57;;;8.57;;
38972;SDS011;25333;50.762;4.470;2022-10-31T06:40:23;10.63;;;7.80;;
38972;SDS011;25333;50.762;4.470;2022-10-31T06:42:56;9.73;;;7.90;;
38972;SDS011;25333;50.762;4.470;2022-10-31T06:45:23;11.75;;;9.05;;
38972;SDS011;25333;50.762;4.470;2022-10-31T06:47:52;8.98;;;7.13;;
38972;SDS011;25333;50.762;4.470;2022-10-31T06:50:19;11.15;;;9.00;;
38972;SDS011;25333;50.762;4.470;2022-10-31T06:52:55;13.68;;;9.20;;
38972;SDS011;25333;50.762;4.470;2022-10-31T06:55:23;12.15;;;8.00;;
38972;SDS011;25333;50.762;4.470;2022-10-31T06:57:50;10.40;;;8.15;;
38972;SDS011;25333;50.762;4.470;2022-10-31T07:00:20;13.50;;;9.80;;
38972;SDS011;25333;50.762;4.470;2022-10-31T07:03:02;15.52;;;8.15;;
38972;SDS011;25333;50.762;4.470;2022-10-31T07:05:29;10.95;;;8.40;;
38972;SDS011;25333;50.762;4.470;2022-10-31T07:07:56;11.18;;;7.60;;
38972;SDS011;25333;50.762;4.470;2022-10-31T07:10:24;9.27;;;7.47;;
38972;SDS011;25333;50.762;4.470;2022-10-31T07:12:58;12.20;;;8.85;;
38972;SDS011;25333;50.762;4.470;2022-10-31T07:15:25;14.38;;;9.55;;
38972;SDS011;25333;50.762;4.470;2022-10-31T07:17:52;14.68;;;8.63;;
38972;SDS011;25333;50.762;4.470;2022-10-31T07:20:18;12.60;;;9.70;;
38972;SDS011;25333;50.762;4.470;2022-10-31T07:22:44;10.50;;;8.60;;
38972;SDS011;25333;50.762;4.470;2022-10-31T07:25:10;13.80;;;9.90;;
38972;SDS011;25333;50.762;4.470;2022-10-31T07:27:37;12.70;;;9.93;;
38972;SDS011;25333;50.762;4.470;2022-10-31T07:30:03;14.23;;;9.55;;
38972;SDS011;25333;50.762;4.470;2022-10-31T07:32:37;14.70;;;9.73;;
38972;SDS011;25333;50.762;4.470;2022-10-31T07:35:04;12.33;;;9.80;;
38972;SDS011;25333;50.762;4.470;2022-10-31T07:37:32;16.55;;;11.48;;
38972;SDS011;25333;50.762;4.470;2022-10-31T07:39:58;12.27;;;9.17;;
38972;SDS011;25333;50.762;4.470;2022-10-31T07:42:24;13.10;;;10.35;;
38972;SDS011;25333;50.762;4.470;2022-10-31T07:44:49;13.52;;;10.15;;
38972;SDS011;25333;50.762;4.470;2022-10-31T07:47:15;13.70;;;10.63;;
38972;SDS011;25333;50.762;4.470;2022-10-31T07:49:41;15.68;;;10.35;;
38972;SDS011;25333;50.762;4.470;2022-10-31T07:52:06;19.20;;;11.87;;
38972;SDS011;25333;50.762;4.470;2022-10-31T07:54:32;16.33;;;10.47;;
38972;SDS011;25333;50.762;4.470;2022-10-31T07:56:57;18.98;;;12.00;;
38972;SDS011;25333;50.762;4.470;2022-10-31T07:59:23;13.93;;;10.10;;
38972;SDS011;25333;50.762;4.470;2022-10-31T08:01:50;11.35;;;9.75;;
38972;SDS011;25333;50.762;4.470;2022-10-31T08:04:16;11.70;;;9.13;;
38972;SDS011;25333;50.762;4.470;2022-10-31T08:06:41;17.60;;;11.60;;
38972;SDS011;25333;50.762;4.470;2022-10-31T08:09:07;13.77;;;10.77;;
38972;SDS011;25333;50.762;4.470;2022-10-31T08:11:33;16.97;;;10.87;;
38972;SDS011;25333;50.762;4.470;2022-10-31T08:13:58;14.30;;;10.57;;
38972;SDS011;25333;50.762;4.470;2022-10-31T08:16:24;12.57;;;10.63;;
38972;SDS011;25333;50.762;4.470;2022-10-31T08:18:49;15.63;;;8.93;;
38972;SDS011;25333;50.762;4.470;2022-10-31T08:21:15;10.45;;;8.05;;
38972;SDS011;25333;50.762;4.470;2022-10-31T08:23:41;13.18;;;10.07;;
38972;SDS011;25333;50.762;4.470;2022-10-31T08:26:06;12.27;;;9.23;;
38972;SDS011;25333;50.762;4.470;2022-10-31T08:28:32;15.57;;;10.35;;
38972;SDS011;25333;50.762;4.470;2022-10-31T08:30:57;14.65;;;9.63;;
38972;SDS011;25333;50.762;4.470;2022-10-31T08:33:23;15.37;;;10.27;;
38972;SDS011;25333;50.762;4.470;2022-10-31T08:35:49;17.20;;;11.13;;
38972;SDS011;25333;50.762;4.470;2022-10-31T08:38:15;12.10;;;10.40;;
38972;SDS011;25333;50.762;4.470;2022-10-31T08:40:40;11.48;;;9.02;;
38972;SDS011;25333;50.762;4.470;2022-10-31T08:43:16;11.88;;;9.43;;
38972;SDS011;25333;50.762;4.470;2022-10-31T08:45:43;12.55;;;9.40;;
38972;SDS011;25333;50.762;4.470;2022-10-31T08:48:10;13.63;;;10.30;;
38972;SDS011;25333;50.762;4.470;2022-10-31T08:50:37;11.10;;;8.73;;
38972;SDS011;25333;50.762;4.470;2022-10-31T08:53:05;12.27;;;9.20;;
38972;SDS011;25333;50.762;4.470;2022-10-31T08:55:33;11.63;;;8.82;;
38972;SDS011;25333;50.762;4.470;2022-10-31T08:58:00;12.35;;;8.98;;
38972;SDS011;25333;50.762;4.470;2022-10-31T09:00:26;17.88;;;10.52;;
38972;SDS011;25333;50.762;4.470;2022-10-31T09:02:55;13.13;;;9.02;;
38972;SDS011;25333;50.762;4.470;2022-10-31T09:05:25;12.93;;;9.45;;
38972;SDS011;25333;50.762;4.470;2022-10-31T09:07:54;10.40;;;8.60;;
38972;SDS011;25333;50.762;4.470;2022-10-31T09:10:30;11.50;;;8.15;;
38972;SDS011;25333;50.762;4.470;2022-10-31T09:13:01;13.38;;;9.93;;
38972;SDS011;25333;50.762;4.470;2022-10-31T09:15:31;15.00;;;9.47;;
38972;SDS011;25333;50.762;4.470;2022-10-31T09:18:00;14.88;;;10.20;;
38972;SDS011;25333;50.762;4.470;2022-10-31T09:20:30;9.90;;;8.07;;
38972;SDS011;25333;50.762;4.470;2022-10-31T09:22:58;11.83;;;10.20;;
38972;SDS011;25333;50.762;4.470;2022-10-31T09:25:26;12.55;;;9.05;;
38972;SDS011;25333;50.762;4.470;2022-10-31T09:27:56;12.30;;;9.02;;
38972;SDS011;25333;50.762;4.470;2022-10-31T09:30:22;13.88;;;9.88;;
38972;SDS011;25333;50.762;4.470;2022-10-31T09:32:48;10.43;;;8.97;;
38972;SDS011;25333;50.762;4.470;2022-10-31T09:35:19;11.75;;;8.60;;
38972;SDS011;25333;50.762;4.470;2022-10-31T09:37:44;14.60;;;8.90;;
38972;SDS011;25333;50.762;4.470;2022-10-31T09:40:10;14.07;;;10.17;;
38972;SDS011;25333;50.762;4.470;2022-10-31T09:42:46;12.52;;;9.73;;
38972;SDS011;25333;50.762;4.470;2022-10-31T09:45:39;10.55;;;8.15;;
38972;SDS011;25333;50.762;4.470;2022-10-31T09:48:13;11.77;;;8.67;;
38972;SDS011;25333;50.762;4.470;2022-10-31T09:50:42;9.48;;;8.30;;
38972;SDS011;25333;50.762;4.470;2022-10-31T09:53:18;10.18;;;8.13;;
38972;SDS011;25333;50.762;4.470;2022-10-31T09:55:54;13.48;;;10.00;;
38972;SDS011;25333;50.762;4.470;2022-10-31T09:58:25;13.07;;;8.57;;
38972;SDS011;25333;50.762;4.470;2022-10-31T10:00:54;10.55;;;9.07;;
38972;SDS011;25333;50.762;4.470;2022-10-31T10:03:28;12.95;;;8.85;;
38972;SDS011;25333;50.762;4.470;2022-10-31T10:08:35;11.95;;;8.57;;
38972;SDS011;25333;50.762;4.470;2022-10-31T10:13:44;11.35;;;7.70;;
38972;SDS011;25333;50.762;4.470;2022-10-31T10:19:11;12.63;;;8.15;;
38972;SDS011;25333;50.762;4.470;2022-10-31T10:22:35;11.90;;;8.27;;
38972;SDS011;25333;50.762;4.470;2022-10-31T10:24:55;11.77;;;8.98;;
38972;SDS011;25333;50.762;4.470;2022-10-31T10:30:13;11.43;;;8.32;;
38972;SDS011;25333;50.762;4.470;2022-10-31T10:32:42;9.48;;;8.20;;
38972;SDS011;25333;50.762;4.470;2022-10-31T10:35:18;13.33;;;7.93;;
38972;SDS011;25333;50.762;4.470;2022-10-31T10:40:53;10.68;;;8.27;;
38972;SDS011;25333;50.762;4.470;2022-10-31T10:43:36;11.20;;;8.60;;
38972;SDS011;25333;50.762;4.470;2022-10-31T10:54:44;10.55;;;6.90;;
38972;SDS011;25333;50.762;4.470;2022-10-31T10:59:47;9.35;;;7.18;;
38972;SDS011;25333;50.762;4.470;2022-10-31T11:02:21;9.63;;;6.45;;
38972;SDS011;25333;50.762;4.470;2022-10-31T11:04:55;14.02;;;9.85;;
38972;SDS011;25333;50.762;4.470;2022-10-31T11:07:22;12.07;;;8.38;;
38972;SDS011;25333;50.762;4.470;2022-10-31T11:09:50;9.77;;;7.72;;
38972;SDS011;25333;50.762;4.470;2022-10-31T11:12:17;14.00;;;8.32;;
38972;SDS011;25333;50.762;4.470;2022-10-31T11:14:52;10.30;;;7.63;;
38972;SDS011;25333;50.762;4.470;2022-10-31T11:17:31;14.10;;;8.93;;
38972;SDS011;25333;50.762;4.470;2022-10-31T11:20:04;12.00;;;8.43;;
38972;SDS011;25333;50.762;4.470;2022-10-31T11:22:30;13.27;;;7.95;;
38972;SDS011;25333;50.762;4.470;2022-10-31T11:24:56;11.27;;;8.70;;
38972;SDS011;25333;50.762;4.470;2022-10-31T11:27:23;13.27;;;8.90;;
38972;SDS011;25333;50.762;4.470;2022-10-31T11:29:50;10.70;;;7.70;;
38972;SDS011;25333;50.762;4.470;2022-10-31T11:32:20;10.45;;;8.32;;
38972;SDS011;25333;50.762;4.470;2022-10-31T11:34:50;11.30;;;7.63;;
38972;SDS011;25333;50.762;4.470;2022-10-31T11:37:29;12.48;;;8.13;;
38972;SDS011;25333;50.762;4.470;2022-10-31T11:40:00;11.82;;;8.40;;
38972;SDS011;25333;50.762;4.470;2022-10-31T11:42:34;9.48;;;6.95;;
38972;SDS011;25333;50.762;4.470;2022-10-31T11:47:50;8.45;;;6.30;;
38972;SDS011;25333;50.762;4.470;2022-10-31T11:50:23;11.50;;;7.10;;
38972;SDS011;25333;50.762;4.470;2022-10-31T11:52:52;11.83;;;6.20;;
38972;SDS011;25333;50.762;4.470;2022-10-31T11:57:58;9.80;;;6.78;;
38972;SDS011;25333;50.762;4.470;2022-10-31T12:00:28;9.97;;;5.93;;
38972;SDS011;25333;50.762;4.470;2022-10-31T12:03:06;11.07;;;6.05;;
38972;SDS011;25333;50.762;4.470;2022-10-31T12:08:24;9.55;;;5.22;;
38972;SDS011;25333;50.762;4.470;2022-10-31T12:10:58;11.65;;;5.78;;
38972;SDS011;25333;50.762;4.470;2022-10-31T12:13:37;8.90;;;5.32;;
38972;SDS011;25333;50.762;4.470;2022-10-31T12:22:23;8.52;;;5.00;;
38972;SDS011;25333;50.762;4.470;2022-10-31T12:30:12;11.05;;;6.53;;
38972;SDS011;25333;50.762;4.470;2022-10-31T12:32:54;7.88;;;5.68;;
38972;SDS011;25333;50.762;4.470;2022-10-31T12:38:55;12.48;;;7.18;;
38972;SDS011;25333;50.762;4.470;2022-10-31T12:44:20;10.95;;;6.65;;
38972;SDS011;25333;50.762;4.470;2022-10-31T12:50:50;12.50;;;6.88;;
38972;SDS011;25333;50.762;4.470;2022-10-31T12:59:45;11.32;;;6.20;;
38972;SDS011;25333;50.762;4.470;2022-10-31T13:02:27;10.38;;;5.13;;
38972;SDS011;25333;50.762;4.470;2022-10-31T13:07:54;9.88;;;5.50;;
38972;SDS011;25333;50.762;4.470;2022-10-31T13:12:53;8.30;;;4.68;;
38972;SDS011;25333;50.762;4.470;2022-10-31T13:15:25;10.40;;;4.55;;
38972;SDS011;25333;50.762;4.470;2022-10-31T13:17:55;12.88;;;5.10;;
38972;SDS011;25333;50.762;4.470;2022-10-31T13:20:25;7.50;;;4.50;;
38972;SDS011;25333;50.762;4.470;2022-10-31T13:23:04;9.43;;;5.17;;
38972;SDS011;25333;50.762;4.470;2022-10-31T13:25:54;8.35;;;4.93;;
38972;SDS011;25333;50.762;4.470;2022-10-31T13:28:24;8.00;;;4.88;;
38972;SDS011;25333;50.762;4.470;2022-10-31T13:31:14;6.83;;;4.70;;
38972;SDS011;25333;50.762;4.470;2022-10-31T13:33:53;10.18;;;4.78;;
38972;SDS011;25333;50.762;4.470;2022-10-31T13:39:44;6.60;;;3.87;;
38972;SDS011;25333;50.762;4.470;2022-10-31T13:42:19;6.55;;;3.67;;
38972;SDS011;25333;50.762;4.470;2022-10-31T13:44:49;7.93;;;3.95;;
38972;SDS011;25333;50.762;4.470;2022-10-31T13:47:25;7.18;;;3.97;;
38972;SDS011;25333;50.762;4.470;2022-10-31T13:50:03;7.05;;;3.60;;
38972;SDS011;25333;50.762;4.470;2022-10-31T13:52:30;8.03;;;4.37;;
38972;SDS011;25333;50.762;4.470;2022-10-31T13:54:56;6.63;;;3.97;;
38972;SDS011;25333;50.762;4.470;2022-10-31T13:57:25;6.20;;;3.03;;
38972;SDS011;25333;50.762;4.470;2022-10-31T14:02:49;7.88;;;4.07;;
38972;SDS011;25333;50.762;4.470;2022-10-31T14:07:54;7.93;;;3.38;;
38972;SDS011;25333;50.762;4.470;2022-10-31T14:10:25;8.38;;;4.88;;
38972;SDS011;25333;50.762;4.470;2022-10-31T14:15:55;8.10;;;3.22;;
38972;SDS011;25333;50.762;4.470;2022-10-31T14:18:24;9.32;;;3.80;;
38972;SDS011;25333;50.762;4.470;2022-10-31T14:20:55;5.18;;;3.17;;
38972;SDS011;25333;50.762;4.470;2022-10-31T14:26:37;7.00;;;3.63;;
38972;SDS011;25333;50.762;4.470;2022-10-31T14:28:44;7.10;;;3.30;;
38972;SDS011;25333;50.762;4.470;2022-10-31T14:36:46;6.97;;;4.18;;
38972;SDS011;25333;50.762;4.470;2022-10-31T14:39:24;7.05;;;3.70;;
38972;SDS011;25333;50.762;4.470;2022-10-31T14:44:34;9.80;;;3.83;;
38972;SDS011;25333;50.762;4.470;2022-10-31T15:06:48;8.23;;;4.20;;
38972;SDS011;25333;50.762;4.470;2022-10-31T15:13:20;5.93;;;4.40;;
38972;SDS011;25333;50.762;4.470;2022-10-31T15:41:22;9.82;;;5.82;;
38972;SDS011;25333;50.762;4.470;2022-10-31T15:54:34;8.87;;;5.43;;
38972;SDS011;25333;50.762;4.470;2022-10-31T15:57:57;6.70;;;4.47;;
38972;SDS011;25333;50.762;4.470;2022-10-31T16:00:45;8.88;;;4.95;;
38972;SDS011;25333;50.762;4.470;2022-10-31T16:16:52;13.02;;;6.00;;
38972;SDS011;25333;50.762;4.470;2022-10-31T16:19:24;7.75;;;5.03;;
38972;SDS011;25333;50.762;4.470;2022-10-31T16:22:09;9.60;;;4.53;;
38972;SDS011;25333;50.762;4.470;2022-10-31T16:27:53;10.85;;;6.13;;
38972;SDS011;25333;50.762;4.470;2022-10-31T16:30:30;8.80;;;5.53;;
38972;SDS011;25333;50.762;4.470;2022-10-31T16:33:26;8.35;;;4.55;;
38972;SDS011;25333;50.762;4.470;2022-10-31T16:36:28;9.05;;;4.88;;
38972;SDS011;25333;50.762;4.470;2022-10-31T16:42:02;8.93;;;5.90;;
38972;SDS011;25333;50.762;4.470;2022-10-31T16:44:37;10.23;;;5.43;;
38972;SDS011;25333;50.762;4.470;2022-10-31T16:47:22;7.10;;;4.50;;
38972;SDS011;25333;50.762;4.470;2022-10-31T16:50:10;9.50;;;5.25;;
38972;SDS011;25333;50.762;4.470;2022-10-31T16:52:39;8.00;;;5.07;;
38972;SDS011;25333;50.762;4.470;2022-10-31T16:55:15;7.68;;;4.93;;
38972;SDS011;25333;50.762;4.470;2022-10-31T16:57:55;10.13;;;5.80;;
38972;SDS011;25333;50.762;4.470;2022-10-31T17:00:25;9.10;;;4.68;;
38972;SDS011;25333;50.762;4.470;2022-10-31T17:03:02;7.60;;;4.45;;
38972;SDS011;25333;50.762;4.470;2022-10-31T17:05:30;7.80;;;4.60;;
38972;SDS011;25333;50.762;4.470;2022-10-31T17:08:03;8.45;;;4.82;;
38972;SDS011;25333;50.762;4.470;2022-10-31T17:10:37;7.87;;;4.90;;
38972;SDS011;25333;50.762;4.470;2022-10-31T17:13:12;7.78;;;4.47;;
38972;SDS011;25333;50.762;4.470;2022-10-31T17:15:45;8.02;;;4.85;;
38972;SDS011;25333;50.762;4.470;2022-10-31T17:18:28;6.47;;;4.10;;
38972;SDS011;25333;50.762;4.470;2022-10-31T17:21:02;6.45;;;4.30;;
38972;SDS011;25333;50.762;4.470;2022-10-31T17:23:41;8.45;;;4.88;;
38972;SDS011;25333;50.762;4.470;2022-10-31T17:26:18;7.03;;;4.70;;
38972;SDS011;25333;50.762;4.470;2022-10-31T17:29:27;6.70;;;5.05;;
38972;SDS011;25333;50.762;4.470;2022-10-31T17:32:02;7.55;;;4.43;;
38972;SDS011;25333;50.762;4.470;2022-10-31T17:34:31;9.03;;;4.53;;
38972;SDS011;25333;50.762;4.470;2022-10-31T17:37:17;7.93;;;4.53;;
38972;SDS011;25333;50.762;4.470;2022-10-31T17:39:45;7.07;;;4.80;;
38972;SDS011;25333;50.762;4.470;2022-10-31T17:42:17;6.90;;;4.72;;
38972;SDS011;25333;50.762;4.470;2022-10-31T17:44:51;6.67;;;4.23;;
38972;SDS011;25333;50.762;4.470;2022-10-31T17:47:31;6.18;;;4.30;;
38972;SDS011;25333;50.762;4.470;2022-10-31T17:50:45;8.13;;;5.07;;
38972;SDS011;25333;50.762;4.470;2022-10-31T17:56:11;8.20;;;5.50;;
38972;SDS011;25333;50.762;4.470;2022-10-31T17:58:42;9.27;;;5.68;;
38972;SDS011;25333;50.762;4.470;2022-10-31T18:01:17;6.57;;;5.18;;
38972;SDS011;25333;50.762;4.470;2022-10-31T18:07:55;9.95;;;5.22;;
38972;SDS011;25333;50.762;4.470;2022-10-31T18:10:49;11.07;;;6.32;;
38972;SDS011;25333;50.762;4.470;2022-10-31T18:13:29;8.85;;;5.68;;
38972;SDS011;25333;50.762;4.470;2022-10-31T18:16:46;10.35;;;6.20;;
38972;SDS011;25333;50.762;4.470;2022-10-31T18:22:31;11.73;;;5.95;;
38972;SDS011;25333;50.762;4.470;2022-10-31T18:25:18;8.20;;;5.25;;
38972;SDS011;25333;50.762;4.470;2022-10-31T18:28:15;8.50;;;5.63;;
38972;SDS011;25333;50.762;4.470;2022-10-31T18:31:17;8.07;;;5.32;;
38972;SDS011;25333;50.762;4.470;2022-10-31T18:37:42;6.18;;;4.78;;
38972;SDS011;25333;50.762;4.470;2022-10-31T18:47:20;9.03;;;5.17;;
38972;SDS011;25333;50.762;4.470;2022-10-31T18:50:32;8.18;;;5.38;;